createdAt,value
2022-07-25T00:01:06.101Z,25.87
2022-07-25T00:03:39.388Z,25.83
2022-07-25T00:06:31.207Z,25.78
2022-07-25T00:09:21.139Z,25.71
2022-07-25T00:12:11.359Z,25.67
2022-07-25T00:15:01.866Z,25.61
2022-07-25T00:17:34.231Z,25.53
2022-07-25T00:20:08.818Z,25.46
2022-07-25T00:23:16.165Z,25.43
2022-07-25T00:28:58.990Z,25.46
2022-07-25T00:31:33.073Z,25.46
2022-07-25T00:37:48.389Z,25.38
2022-07-25T00:40:39.750Z,25.29
2022-07-25T00:43:12.104Z,25.26
2022-07-25T00:46:03.200Z,25.25
2022-07-25T00:48:36.639Z,25.25
2022-07-25T00:52:03.004Z,25.05
2022-07-25T00:54:54.264Z,24.79
2022-07-25T00:57:46.214Z,24.63
2022-07-25T01:06:35.102Z,24.27
2022-07-25T01:09:43.901Z,24.24
2022-07-25T01:13:08.236Z,24.19
2022-07-25T01:15:59.846Z,24.03
2022-07-25T01:18:34.607Z,23.93
2022-07-25T01:21:22.597Z,23.82
2022-07-25T01:24:12.496Z,23.62
2022-07-25T01:27:21.053Z,23.47
2022-07-25T01:30:10.735Z,23.34
2022-07-25T01:33:06.521Z,23.28
2022-07-25T01:35:57.429Z,23.26
2022-07-25T01:41:37.776Z,23.13
2022-07-25T01:44:28.468Z,23.05
2022-07-25T01:47:18.447Z,23.00
2022-07-25T01:49:50.915Z,22.98
2022-07-25T01:55:31.195Z,22.90
2022-07-25T01:58:40.621Z,22.85
2022-07-25T02:01:52.047Z,22.78
2022-07-25T02:05:17.022Z,22.66
2022-07-25T02:08:06.959Z,22.50
2022-07-25T02:14:08.594Z,22.31
2022-07-25T02:16:59.314Z,22.26
2022-07-25T02:19:49.388Z,22.20
2022-07-25T02:25:13.046Z,22.27
2022-07-25T02:28:20.698Z,22.35
2022-07-25T02:30:53.259Z,22.46
2022-07-25T02:37:09.175Z,22.58
2022-07-25T02:40:00.437Z,22.53
2022-07-25T02:42:51.609Z,22.45
2022-07-25T02:45:24.047Z,22.42
2022-07-25T02:48:16.223Z,22.40
2022-07-25T02:51:06.501Z,22.45
2022-07-25T02:54:15.517Z,22.52
2022-07-25T02:57:41.604Z,22.61
2022-07-25T03:00:33.743Z,22.66
2022-07-25T03:03:06.297Z,22.64
2022-07-25T03:06:14.546Z,22.63
2022-07-25T03:09:39.649Z,22.56
2022-07-25T03:13:06.400Z,22.45
2022-07-25T03:15:38.901Z,22.32
2022-07-25T03:18:46.372Z,22.20
2022-07-25T03:24:09.963Z,22.08
2022-07-25T03:26:42.619Z,22.09
2022-07-25T03:29:15.008Z,22.08
2022-07-25T03:31:50.810Z,22.02
2022-07-25T03:34:23.812Z,21.96
2022-07-25T03:43:31.880Z,21.88
2022-07-25T03:46:57.906Z,21.88
2022-07-25T03:49:49.193Z,21.93
2022-07-25T03:56:04.722Z,22.13
2022-07-25T03:58:37.131Z,22.13
2022-07-25T04:01:45.142Z,22.14
2022-07-25T04:04:36.960Z,22.12
2022-07-25T04:10:35.183Z,22.07
2022-07-25T04:13:07.475Z,22.21
2022-07-25T04:15:39.730Z,22.52
2022-07-25T04:25:08.851Z,23.65
2022-07-25T04:31:23.870Z,24.73
2022-07-25T04:34:14.653Z,25.28
2022-07-25T04:39:54.451Z,26.13
2022-07-25T04:42:45.063Z,26.48
2022-07-25T04:45:35.863Z,26.82
2022-07-25T04:49:37.210Z,27.22
2022-07-25T04:52:44.531Z,27.60
2022-07-25T04:55:52.830Z,28.02
2022-07-25T04:58:24.958Z,28.28
2022-07-25T05:01:15.666Z,28.53
2022-07-25T05:04:06.448Z,28.88
2022-07-25T05:06:56.322Z,29.09
2022-07-25T05:10:04.336Z,29.59
2022-07-25T05:13:29.825Z,29.91
2022-07-25T05:16:02.151Z,30.44
2022-07-25T05:18:34.909Z,30.80
2022-07-25T05:21:43.762Z,31.07
2022-07-25T05:24:50.340Z,31.28
2022-07-25T05:27:59.604Z,31.54
2022-07-25T05:30:36.513Z,31.72
2022-07-25T05:33:30.718Z,32.01
2022-07-25T05:36:20.468Z,32.26
2022-07-25T05:38:54.250Z,32.50
2022-07-25T05:45:30.217Z,33.06
2022-07-25T05:48:20.265Z,33.26
2022-07-25T05:54:35.046Z,33.71
2022-07-25T05:57:43.817Z,33.87
2022-07-25T06:00:19.355Z,33.87
2022-07-25T06:03:27.458Z,34.17
2022-07-25T06:06:52.808Z,34.59
2022-07-25T06:16:00.193Z,35.19
2022-07-25T06:28:49.788Z,36.01
2022-07-25T06:34:50.427Z,36.24
2022-07-25T06:41:43.269Z,36.77
2022-07-25T06:48:03.281Z,37.50
2022-07-25T06:51:10.931Z,37.77
2022-07-25T06:54:00.377Z,37.92
2022-07-25T06:57:09.077Z,38.13
2022-07-25T06:59:41.286Z,38.29
2022-07-25T07:02:13.857Z,38.19
2022-07-25T07:04:46.304Z,38.28
2022-07-25T07:07:56.460Z,37.99
2022-07-25T07:11:05.802Z,37.81
2022-07-25T07:14:31.910Z,38.18
2022-07-25T07:21:22.905Z,37.74
2022-07-25T07:27:03.978Z,37.61
2022-07-25T07:30:18.571Z,37.40
2022-07-25T07:33:31.014Z,37.61
2022-07-25T07:36:03.947Z,37.51
2022-07-25T07:38:53.976Z,36.99
2022-07-25T07:41:43.521Z,36.67
2022-07-25T07:44:33.461Z,36.00
2022-07-25T07:47:41.568Z,35.64
2022-07-25T07:50:31.868Z,35.65
2022-07-25T07:53:57.074Z,35.81
2022-07-25T07:57:05.054Z,36.53
2022-07-25T07:59:37.219Z,36.95
2022-07-25T08:02:09.866Z,36.84
2022-07-25T08:04:59.507Z,36.90
2022-07-25T08:07:32.005Z,36.93
2022-07-25T08:13:12.444Z,37.83
2022-07-25T08:16:01.920Z,37.91
2022-07-25T08:18:52.258Z,37.61
2022-07-25T08:21:24.471Z,37.44
2022-07-25T08:24:15.696Z,37.37
2022-07-25T08:27:05.301Z,37.16
2022-07-25T08:30:30.251Z,37.21
2022-07-25T08:33:38.275Z,37.20
2022-07-25T08:39:41.732Z,37.33
2022-07-25T08:42:14.307Z,37.37
2022-07-25T08:47:57.994Z,37.84
2022-07-25T08:50:51.629Z,37.79
2022-07-25T08:54:17.187Z,38.03
2022-07-25T08:57:07.256Z,37.77
2022-07-25T09:00:00.230Z,37.48
2022-07-25T09:11:34.511Z,37.97
2022-07-25T09:21:06.085Z,38.08
2022-07-25T09:27:40.129Z,38.08
2022-07-25T09:30:29.488Z,38.19
2022-07-25T09:33:45.687Z,38.27
2022-07-25T09:40:13.561Z,39.08
2022-07-25T09:42:52.609Z,38.90
2022-07-25T09:45:53.740Z,38.74
2022-07-25T09:49:21.874Z,38.75
2022-07-25T09:58:18.942Z,39.53
2022-07-25T10:08:07.216Z,39.65
2022-07-25T10:11:22.152Z,39.80
2022-07-25T10:17:28.613Z,39.80
2022-07-25T10:20:55.457Z,39.62
2022-07-25T10:23:46.461Z,39.36
2022-07-25T10:26:19.925Z,39.21
2022-07-25T10:28:56.699Z,39.09
2022-07-25T10:38:44.417Z,39.16
2022-07-25T10:47:42.647Z,39.94
2022-07-25T10:50:57.571Z,40.18
2022-07-25T10:53:55.918Z,40.37
2022-07-25T11:00:10.781Z,40.28
2022-07-25T11:03:36.646Z,40.04
2022-07-25T11:06:09.742Z,40.12
2022-07-25T11:08:42.457Z,40.17
2022-07-25T11:11:57.490Z,40.34
2022-07-25T11:14:47.922Z,40.76
2022-07-25T11:21:08.587Z,41.04
2022-07-25T11:24:15.347Z,41.22
2022-07-25T11:27:11.716Z,41.01
2022-07-25T11:30:03.322Z,41.30
2022-07-25T11:33:38.412Z,41.00
2022-07-25T11:36:57.497Z,40.71
2022-07-25T11:39:32.083Z,40.40
2022-07-25T11:42:22.664Z,40.29
2022-07-25T11:44:56.729Z,40.35
2022-07-25T11:51:27.197Z,40.54
2022-07-25T11:54:34.776Z,40.99
2022-07-25T11:57:09.019Z,41.29
2022-07-25T12:00:19.789Z,41.20
2022-07-25T12:03:47.338Z,41.33
2022-07-25T12:07:31.959Z,41.08
2022-07-25T12:13:43.505Z,39.91
2022-07-25T12:17:08.803Z,40.14
2022-07-25T12:20:20.210Z,39.94
2022-07-25T12:23:13.577Z,39.86
2022-07-25T12:29:47.600Z,40.23
2022-07-25T12:32:19.998Z,40.29
2022-07-25T12:38:19.933Z,39.95
2022-07-25T12:42:03.439Z,40.13
2022-07-25T12:44:56.971Z,39.67
2022-07-25T12:47:30.473Z,39.38
2022-07-25T12:57:30.214Z,39.41
2022-07-25T13:03:49.206Z,39.67
2022-07-25T13:07:14.357Z,39.85
2022-07-25T13:13:48.957Z,40.19
2022-07-25T13:16:39.352Z,40.17
2022-07-25T13:23:00.514Z,40.44
2022-07-25T13:25:33.875Z,40.65
2022-07-25T13:32:28.574Z,40.99
2022-07-25T13:35:20.828Z,40.86
2022-07-25T13:38:13.528Z,40.58
2022-07-25T13:48:18.973Z,40.26
2022-07-25T13:51:04.523Z,40.20
2022-07-25T13:53:36.750Z,40.03
2022-07-25T13:56:43.522Z,39.89
2022-07-25T13:59:33.383Z,39.58
2022-07-25T14:02:57.930Z,39.54
2022-07-25T14:05:49.543Z,39.43
2022-07-25T14:14:02.642Z,38.70
2022-07-25T14:16:35.311Z,38.69
2022-07-25T14:19:24.527Z,38.57
2022-07-25T14:22:15.459Z,38.28
2022-07-25T14:28:32.765Z,37.80
2022-07-25T14:31:05.203Z,37.80
2022-07-25T14:34:15.575Z,37.73
2022-07-25T14:43:03.175Z,37.32
2022-07-25T14:48:57.089Z,36.92
2022-07-25T14:51:26.188Z,36.93
2022-07-25T14:54:31.667Z,36.79
2022-07-25T14:57:37.840Z,36.49
2022-07-25T15:00:09.810Z,36.18
2022-07-25T15:02:56.981Z,36.07
2022-07-25T15:05:29.610Z,36.10
2022-07-25T15:08:35.009Z,36.24
2022-07-25T15:15:25.764Z,36.54
2022-07-25T15:18:14.194Z,36.57
2022-07-25T15:20:43.216Z,36.59
2022-07-25T15:26:18.577Z,36.64
2022-07-25T15:29:25.531Z,36.72
2022-07-25T15:31:55.662Z,36.81
2022-07-25T15:34:24.695Z,36.77
2022-07-25T15:37:29.901Z,36.76
2022-07-25T15:40:00.392Z,36.77
2022-07-25T15:42:29.750Z,36.72
2022-07-25T15:45:37.359Z,36.73
2022-07-25T15:54:45.932Z,36.82
2022-07-25T15:57:46.829Z,36.78
2022-07-25T16:00:15.356Z,36.60
2022-07-25T16:02:45.877Z,36.37
2022-07-25T16:05:15.230Z,36.33
2022-07-25T16:08:03.564Z,36.39
2022-07-25T16:10:50.546Z,36.48
2022-07-25T16:13:56.070Z,36.36
2022-07-25T16:17:01.630Z,36.21
2022-07-25T16:19:49.282Z,36.07
2022-07-25T16:22:57.191Z,35.86
2022-07-25T16:31:57.081Z,35.45
2022-07-25T16:34:29.201Z,35.36
2022-07-25T16:37:16.703Z,35.28
2022-07-25T16:43:12.223Z,35.09
2022-07-25T16:45:42.469Z,35.09
2022-07-25T16:48:49.632Z,34.94
2022-07-25T16:51:54.737Z,34.81
2022-07-25T16:55:02.415Z,34.68
2022-07-25T16:58:07.154Z,34.57
2022-07-25T17:00:36.647Z,34.55
2022-07-25T17:03:27.588Z,34.49
2022-07-25T17:05:57.032Z,34.38
2022-07-25T17:09:06.134Z,34.28
2022-07-25T17:14:42.160Z,34.15
2022-07-25T17:17:48.349Z,34.15
2022-07-25T17:20:35.860Z,34.12
2022-07-25T17:26:30.130Z,33.98
2022-07-25T17:29:54.555Z,33.86
2022-07-25T17:33:03.562Z,33.81
2022-07-25T17:36:09.191Z,33.74
2022-07-25T17:42:21.640Z,33.65
2022-07-25T17:45:09.978Z,33.54
2022-07-25T17:53:51.109Z,33.28
2022-07-25T17:56:57.681Z,33.25
2022-07-25T18:00:08.068Z,33.19
2022-07-25T18:08:18.568Z,33.01
2022-07-25T18:14:33.772Z,32.82
2022-07-25T18:17:22.514Z,32.68
2022-07-25T18:20:10.666Z,32.57
2022-07-25T18:23:16.383Z,32.46
2022-07-25T18:26:06.159Z,32.36
2022-07-25T18:28:53.126Z,32.27
2022-07-25T18:31:58.165Z,32.14
2022-07-25T18:34:45.684Z,31.91
2022-07-25T18:37:15.462Z,31.80
2022-07-25T18:43:27.521Z,31.65
2022-07-25T18:46:35.752Z,31.57
2022-07-25T18:49:42.385Z,31.51
2022-07-25T18:55:59.385Z,31.36
2022-07-25T18:58:47.237Z,31.31
2022-07-25T19:01:35.730Z,31.27
2022-07-25T19:07:29.435Z,31.15
2022-07-25T19:13:48.400Z,31.01
2022-07-25T19:16:54.402Z,30.90
2022-07-25T19:19:41.614Z,30.83
2022-07-25T19:22:10.525Z,30.79
2022-07-25T19:24:57.644Z,30.76
2022-07-25T19:28:03.070Z,30.73
2022-07-25T19:30:51.770Z,30.69
2022-07-25T19:33:39.585Z,30.64
2022-07-25T19:36:10.263Z,30.59
2022-07-25T19:38:57.117Z,30.53
2022-07-25T19:45:29.352Z,30.34
2022-07-25T19:51:58.287Z,30.12
2022-07-25T19:54:44.926Z,30.02
2022-07-25T19:57:53.054Z,29.92
2022-07-25T20:00:59.726Z,29.78
2022-07-25T20:07:29.602Z,29.49
2022-07-25T20:16:13.994Z,28.92
2022-07-25T20:19:01.129Z,28.87
2022-07-25T20:22:06.050Z,28.76
2022-07-25T20:28:00.358Z,28.66
2022-07-25T20:31:06.370Z,28.61
2022-07-25T20:33:53.942Z,28.56
2022-07-25T20:37:18.729Z,28.50
2022-07-25T20:40:08.656Z,28.43
2022-07-25T20:43:15.120Z,28.37
2022-07-25T20:45:45.022Z,28.37
2022-07-25T20:49:10.321Z,28.36
2022-07-25T20:51:58.920Z,28.37
2022-07-25T20:54:46.949Z,28.36
2022-07-25T20:58:11.243Z,28.33
2022-07-25T21:00:58.248Z,28.31
2022-07-25T21:04:07.302Z,28.26
2022-07-25T21:06:37.199Z,28.22
2022-07-25T21:13:26.604Z,28.20
2022-07-25T21:24:24.346Z,28.11
2022-07-25T21:27:11.353Z,28.11
2022-07-25T21:30:16.403Z,28.10
2022-07-25T21:33:23.487Z,28.06
2022-07-25T21:39:16.653Z,27.97
2022-07-25T21:41:46.644Z,27.94
2022-07-25T21:44:33.744Z,27.94
2022-07-25T21:47:21.581Z,27.92
2022-07-25T21:50:13.902Z,27.87
2022-07-25T21:53:24.687Z,27.80
2022-07-25T21:55:53.427Z,27.77
2022-07-25T22:02:24.292Z,27.62
2022-07-25T22:05:12.306Z,27.54
2022-07-25T22:08:19.240Z,27.42
2022-07-25T22:10:48.391Z,27.29
2022-07-25T22:13:37.223Z,27.16
2022-07-25T22:16:11.327Z,27.12
2022-07-25T22:18:40.213Z,27.07
2022-07-25T22:21:27.489Z,27.02
2022-07-25T22:24:15.515Z,26.96
2022-07-25T22:27:02.945Z,26.86
2022-07-25T22:29:49.822Z,26.76
2022-07-25T22:32:56.644Z,26.64
2022-07-25T22:36:02.075Z,26.61
2022-07-25T22:39:08.081Z,26.60
2022-07-25T22:41:38.300Z,26.57
2022-07-25T22:44:26.349Z,26.53
2022-07-25T22:47:31.871Z,26.50
2022-07-25T22:54:37.924Z,26.43
2022-07-25T23:00:48.834Z,26.48
2022-07-25T23:06:58.399Z,26.48
2022-07-25T23:09:33.709Z,26.45
2022-07-25T23:12:23.612Z,26.41
2022-07-25T23:15:11.074Z,26.40
2022-07-25T23:21:05.443Z,26.30
2022-07-25T23:24:28.774Z,26.27
2022-07-25T23:27:35.185Z,26.24
2022-07-25T23:33:31.673Z,26.17
2022-07-25T23:36:19.590Z,26.13
2022-07-25T23:39:43.045Z,26.13
2022-07-25T23:43:07.468Z,26.07
2022-07-25T23:45:36.751Z,26.00
2022-07-25T23:48:49.972Z,25.95
2022-07-25T23:54:43.606Z,25.83
2022-07-25T23:57:49.982Z,25.78
